Time;durP1;ratioP1;P1;durP2;ratioP2;P2;SDS_P1;SDS_P2;PMS_P1;PMS_P2;Temp;Humidity;BMP_temperature;BMP_pressure;BME280_temperature;BME280_humidity;BME280_pressure;Samples;Min_cycle;Max_cycle;Signal;HPM_P1;HPM_P2
2022/06/08 00:00:23;;;;;;;3.83;2.27;;;;;;;24.92;50.18;101263.98;1551118;92;21159;-48
2022/06/08 00:03:10;;;;;;;2.60;2.15;;;;;;;24.88;50.03;101261.18;1593851;88;21098;-52
2022/06/08 00:05:37;;;;;;;2.50;2.17;;;;;;;24.85;50.14;101264.08;1506026;94;21619;-49
2022/06/08 00:08:04;;;;;;;3.50;2.25;;;;;;;24.77;50.53;101256.63;1505433;95;21092;-49
2022/06/08 00:10:32;;;;;;;2.47;2.17;;;;;;;24.77;50.53;101256.63;1505636;94;21123;-50
2022/06/08 00:12:59;;;;;;;4.83;2.45;;;;;;;24.75;50.42;101249.24;1505497;94;21144;-49
2022/06/08 00:15:28;;;;;;;2.15;1.95;;;;;;;24.73;50.50;101248.98;1505646;94;21195;-50
2022/06/08 00:17:57;;;;;;;1.80;1.67;;;;;;;24.71;50.47;101244.25;1505388;94;21844;-49
2022/06/08 00:20:24;;;;;;;3.35;1.80;;;;;;;24.68;50.48;101245.31;1505536;94;21072;-51
2022/06/08 00:22:53;;;;;;;4.67;2.10;;;;;;;24.67;50.35;101245.39;1505728;94;21139;-55
2022/06/08 00:25:20;;;;;;;3.08;2.17;;;;;;;24.66;50.29;101241.05;1505406;94;21556;-50
2022/06/08 00:27:48;;;;;;;3.33;1.77;;;;;;;24.65;50.15;101240.67;1505605;94;21116;-53
2022/06/08 00:30:15;;;;;;;2.22;2.02;;;;;;;24.64;49.95;101238.52;1505457;95;21169;-49
2022/06/08 00:32:42;;;;;;;4.35;1.80;;;;;;;24.64;49.72;101241.65;1507702;94;21068;-49
2022/06/08 00:35:09;;;;;;;2.45;1.87;;;;;;;24.60;49.53;101241.50;1524168;93;21197;-51
2022/06/08 00:37:36;;;;;;;1.90;1.80;;;;;;;24.60;49.53;101241.50;1524170;93;21122;-49
2022/06/08 00:40:05;;;;;;;2.67;1.70;;;;;;;24.57;49.43;101234.58;1524558;93;21587;-50
2022/06/08 00:42:32;;;;;;;1.80;1.60;;;;;;;24.55;49.23;101236.50;1540600;91;21044;-51
2022/06/08 00:45:07;;;;;;;3.52;1.80;;;;;;;24.52;49.01;101237.21;1578210;89;21088;-50
2022/06/08 00:47:42;;;;;;;1.70;1.60;;;;;;;24.49;48.84;101236.09;1578271;91;21077;-52
2022/06/08 00:50:15;;;;;;;2.22;1.90;;;;;;;24.46;48.73;101236.33;1542760;93;21089;-50
2022/06/08 00:52:42;;;;;;;1.57;1.47;;;;;;;24.45;48.61;101242.12;1542949;91;21117;-50
2022/06/08 00:55:11;;;;;;;2.65;1.75;;;;;;;24.44;48.54;101232.42;1543142;93;21077;-48
2022/06/08 00:57:52;;;;;;;3.08;1.82;;;;;;;24.45;48.58;101231.95;1545718;93;21151;-50
2022/06/08 01:00:24;;;;;;;2.12;1.92;;;;;;;24.46;48.58;101225.18;1544983;93;21129;-51
2022/06/08 01:02:52;;;;;;;1.50;1.40;;;;;;;24.47;48.33;101230.03;1512982;95;21652;-52
2022/06/08 01:05:40;;;;;;;3.50;2.08;;;;;;;24.45;48.21;101229.29;1512923;95;21079;-49
2022/06/08 01:08:45;;;;;;;1.72;1.60;;;;;;;24.43;48.24;101235.20;1528124;90;21045;-50
2022/06/08 01:11:33;;;;;;;1.98;1.50;;;;;;;24.40;48.21;101236.77;1561443;90;21133;-51
2022/06/08 01:14:03;;;;;;;2.10;1.90;;;;;;;24.36;48.65;101239.28;1565545;90;21092;-48
2022/06/08 01:16:32;;;;;;;2.43;2.23;;;;;;;24.33;49.20;101238.15;1561295;90;21176;-50
2022/06/08 01:19:01;;;;;;;2.25;1.85;;;;;;;24.32;49.57;101241.78;1565444;90;21068;-51
2022/06/08 01:21:35;;;;;;;1.65;1.55;;;;;;;24.29;49.78;101231.35;1565613;92;21104;-50
2022/06/08 01:24:07;;;;;;;2.83;1.70;;;;;;;24.30;50.03;101241.05;1561206;92;21075;-49
2022/06/08 01:26:48;;;;;;;2.60;1.70;;;;;;;24.28;50.38;101240.30;1565465;90;21588;-50
2022/06/08 01:29:32;;;;;;;7.80;2.85;;;;;;;24.30;50.69;101241.05;1563015;90;21079;-50
2022/06/08 01:32:33;;;;;;;2.70;2.15;;;;;;;24.30;51.28;101238.39;1561835;92;21617;-50
2022/06/08 01:35:29;;;;;;;3.80;2.02;;;;;;;24.32;51.56;101236.47;1551253;91;21158;-51
2022/06/08 01:38:35;;;;;;;3.37;2.95;;;;;;;24.33;51.73;101235.49;1549503;91;21158;-52
2022/06/08 01:41:31;;;;;;;5.08;3.35;;;;;;;24.33;51.86;101222.19;1542922;91;21643;-49
2022/06/08 01:44:30;;;;;;;6.92;3.27;;;;;;;24.36;52.07;101221.98;1490492;95;21051;-51
2022/06/08 01:47:08;;;;;;;5.75;4.00;;;;;;;24.37;52.43;101216.55;1463196;96;21127;-49
2022/06/08 01:50:02;;;;;;;7.17;3.67;;;;;;;24.39;52.69;101218.62;1453184;98;21190;-51
2022/06/08 01:52:38;;;;;;;3.87;3.02;;;;;;;24.40;52.84;101219.48;1468049;96;21113;-51
2022/06/08 01:55:17;;;;;;;6.47;3.62;;;;;;;24.42;52.71;101214.89;1468207;97;21139;-54
2022/06/08 01:58:13;;;;;;;7.62;3.65;;;;;;;24.45;52.63;101212.00;1462935;97;21702;-49
2022/06/08 02:00:48;;;;;;;7.55;3.85;;;;;;;24.47;52.62;101208.75;1539655;92;21092;-49
2022/06/08 02:03:36;;;;;;;6.92;4.20;;;;;;;24.49;52.64;101208.16;1488988;96;21122;-49
2022/06/08 02:06:08;;;;;;;7.40;4.70;;;;;;;24.51;52.77;101210.22;1471897;97;21131;-50
2022/06/08 02:08:57;;;;;;;6.20;4.78;;;;;;;24.51;52.78;101212.41;1471904;97;21671;-49
2022/06/08 02:11:51;;;;;;;5.85;4.20;;;;;;;24.53;52.79;101213.63;1469540;98;21107;-49
2022/06/08 02:14:23;;;;;;;9.95;4.45;;;;;;;24.54;52.84;101212.67;1450236;98;21096;-50
2022/06/08 02:16:54;;;;;;;6.03;4.25;;;;;;;24.53;52.88;101207.83;1460320;97;22738;-51
2022/06/08 02:19:52;;;;;;;7.20;4.87;;;;;;;24.54;52.91;101208.69;1452666;98;21070;-53
2022/06/08 02:22:34;;;;;;;5.90;4.30;;;;;;;24.54;52.95;101206.02;1408712;101;21135;-50
2022/06/08 02:25:23;;;;;;;;;;;;;;;24.55;52.77;101209.89;1421684;100;21668;-49
2022/06/08 02:28:11;;;;;;;5.70;3.80;;;;;;;24.56;52.66;101202.77;1398470;102;20143;-50
2022/06/08 02:31:06;;;;;;;5.83;3.92;;;;;;;24.54;52.62;101200.23;1400100;102;21652;-51
2022/06/08 02:36:28;;;;;;;3.52;2.77;;;;;;;24.51;52.84;101199.58;1395240;102;21220;-52
2022/06/08 02:39:14;;;;;;;3.47;2.75;;;;;;;24.49;52.55;101201.50;1426155;98;21223;-53
2022/06/08 02:41:43;;;;;;;3.25;2.40;;;;;;;24.46;52.55;101199.08;1467627;98;21125;-49
2022/06/08 02:44:16;;;;;;;2.83;2.27;;;;;;;24.43;52.61;101197.95;1467743;98;21139;-50
2022/06/08 02:46:51;;;;;;;3.72;2.02;;;;;;;24.44;52.61;101195.69;1502092;95;21445;-51
2022/06/08 02:49:18;;;;;;;2.35;1.92;;;;;;;24.44;52.55;101193.02;1574082;91;21086;-51
2022/06/08 02:51:48;;;;;;;2.70;2.10;;;;;;;24.45;52.37;101202.69;1571286;91;21657;-50
2022/06/08 02:54:25;;;;;;;3.50;2.15;;;;;;;24.46;51.63;101203.08;1590953;90;21129;-49
2022/06/08 02:57:08;;;;;;;5.45;2.60;;;;;;;24.47;51.26;101205.61;1591028;90;21068;-50
2022/06/08 03:00:10;;;;;;;3.58;2.72;;;;;;;24.60;50.80;101204.25;1570329;88;21124;-49
2022/06/08 03:02:52;;;;;;;2.50;2.30;;;;;;;24.66;50.28;101206.46;1624365;88;21596;-50
2022/06/08 03:05:41;;;;;;;3.22;2.92;;;;;;;24.64;50.34;101203.92;1624380;87;21138;-51
2022/06/08 03:08:19;;;;;;;3.62;2.62;;;;;;;24.66;50.66;101210.45;1624523;88;21234;-50
2022/06/08 03:10:47;;;;;;;3.95;3.00;;;;;;;24.66;50.99;101205.12;1523175;93;21097;-49
2022/06/08 03:13:33;;;;;;;4.62;3.20;;;;;;;24.65;51.09;101211.39;1524114;93;21126;-52
2022/06/08 03:16:04;;;;;;;3.95;3.00;;;;;;;24.65;51.08;101210.92;1523741;93;21069;-51
2022/06/08 03:18:31;;;;;;;5.25;3.12;;;;;;;24.60;51.43;101212.23;1541799;90;21142;-50
2022/06/08 03:21:01;;;;;;;5.12;2.85;;;;;;;24.65;51.41;101218.91;1574076;90;21126;-51
2022/06/08 03:23:31;;;;;;;4.90;3.00;;;;;;;24.59;51.48;101214.03;1566055;90;21092;-49
2022/06/08 03:25:58;;;;;;;3.65;3.33;;;;;;;24.59;51.47;101215.84;1568238;90;21079;-51
2022/06/08 03:28:25;;;;;;;3.65;3.22;;;;;;;24.59;51.17;101214.51;1563268;90;21160;-51
2022/06/08 03:30:53;;;;;;;3.80;3.40;;;;;;;24.60;50.96;101214.42;1565409;90;21051;-51
2022/06/08 03:33:19;;;;;;;4.42;3.72;;;;;;;24.63;50.35;101214.65;1573467;90;21079;-55
2022/06/08 03:35:47;;;;;;;5.78;3.52;;;;;;;24.64;50.03;101215.03;1568824;90;21653;-50
2022/06/08 03:38:15;;;;;;;7.65;3.75;;;;;;;24.67;50.25;101213.46;1570259;90;21101;-50
2022/06/08 03:40:43;;;;;;;7.00;3.60;;;;;;;24.71;50.46;101212.31;1570662;90;21094;-49
2022/06/08 03:43:10;;;;;;;7.33;3.22;;;;;;;24.72;50.18;101217.98;1572327;90;21191;-50
2022/06/08 03:45:44;;;;;;;7.50;3.62;;;;;;;24.72;49.63;101219.31;1564857;90;21164;-50
2022/06/08 03:48:10;;;;;;;7.47;3.60;;;;;;;24.73;48.84;101222.36;1606079;87;21518;-53
2022/06/08 03:50:41;;;;;;;4.78;3.60;;;;;;;24.71;48.56;101213.14;1640117;87;21097;-49
2022/06/08 03:53:16;;;;;;;4.92;3.37;;;;;;;24.73;48.35;101218.37;1635448;87;20995;-50
2022/06/08 03:55:42;;;;;;;7.47;3.75;;;;;;;24.73;48.33;101210.39;1654171;83;21127;-51
2022/06/08 03:58:09;;;;;;;4.28;3.80;;;;;;;24.74;48.29;101223.61;1722380;83;21569;-51
2022/06/08 04:00:38;;;;;;;4.15;3.47;;;;;;;24.75;48.32;101224.46;1733993;81;21050;-51
2022/06/08 04:03:07;;;;;;;7.03;4.12;;;;;;;24.76;48.39;101227.00;1781168;80;21014;-49
2022/06/08 04:05:34;;;;;;;5.45;3.58;;;;;;;24.77;48.40;101229.19;1778226;80;21074;-49
2022/06/08 04:09:04;;;;;;;3.15;2.58;;;;;;;24.77;47.18;101223.87;1777697;80;21522;-51
2022/06/08 04:11:33;;;;;;;3.10;2.30;;;;;;;24.77;47.18;101223.87;1788814;80;21018;-50
2022/06/08 04:14:01;;;;;;;2.90;2.50;;;;;;;24.77;46.52;101222.54;1775328;80;21070;-50
2022/06/08 04:16:29;;;;;;;2.67;2.22;;;;;;;24.80;47.10;101227.62;1778221;80;21483;-51
2022/06/08 04:18:59;;;;;;;5.25;2.55;;;;;;;24.80;47.10;101227.62;1790012;80;21888;-50
2022/06/08 04:21:28;;;;;;;5.03;2.90;;;;;;;24.84;47.38;101227.77;1779008;80;21085;-50
2022/06/08 04:24:00;;;;;;;3.15;2.85;;;;;;;24.86;47.89;101221.84;1782506;80;21494;-49
2022/06/08 04:26:28;;;;;;;3.72;2.47;;;;;;;24.92;48.29;101225.38;1781161;80;21025;-50
2022/06/08 04:28:57;;;;;;;3.60;2.37;;;;;;;24.94;48.51;101230.11;1715579;83;21076;-50
2022/06/08 04:31:24;;;;;;;2.75;1.95;;;;;;;25.00;48.70;101231.84;1715653;83;21066;-50
2022/06/08 04:33:53;;;;;;;3.12;2.35;;;;;;;25.12;49.49;101231.44;1713626;83;21109;-51
2022/06/08 04:36:22;;;;;;;2.75;2.55;;;;;;;25.12;49.49;101231.44;1706247;83;21589;-52
2022/06/08 04:38:49;;;;;;;3.62;2.33;;;;;;;25.25;49.75;101230.86;1707405;84;21045;-51
2022/06/08 04:41:16;;;;;;;2.65;2.45;;;;;;;25.32;50.01;101232.11;1667243;85;21042;-49
2022/06/08 04:43:43;;;;;;;2.72;2.40;;;;;;;25.40;49.69;101230.19;1708627;83;21062;-50
2022/06/08 04:46:15;;;;;;;3.00;2.37;;;;;;;25.40;49.69;101230.19;1671770;85;21554;-49
2022/06/08 04:48:40;;;;;;;4.80;2.60;;;;;;;25.48;49.69;101236.67;1711348;84;21025;-49
2022/06/08 04:51:08;;;;;;;6.05;2.62;;;;;;;25.54;49.50;101230.02;1673367;85;21055;-50
2022/06/08 04:53:35;;;;;;;3.08;2.20;;;;;;;25.63;49.15;101233.33;1707904;84;21629;-50
2022/06/08 04:56:03;;;;;;;2.67;2.30;;;;;;;25.66;49.25;101231.27;1668884;85;21114;-51
2022/06/08 04:58:31;;;;;;;5.35;2.70;;;;;;;25.69;49.33;101225.71;1714641;84;21455;-49
2022/06/08 05:00:58;;;;;;;2.90;2.40;;;;;;;25.75;49.37;101231.90;1708436;83;21023;-51
2022/06/08 05:03:25;;;;;;;2.83;2.30;;;;;;;25.82;49.40;101230.44;1669331;85;21475;-52
2022/06/08 05:05:52;;;;;;;2.90;2.20;;;;;;;25.94;49.53;101235.80;1670981;85;21046;-53
2022/06/08 05:08:23;;;;;;;2.67;2.20;;;;;;;26.09;49.64;101237.31;1706900;84;21482;-53
2022/06/08 05:10:51;;;;;;;3.35;2.00;;;;;;;26.23;49.52;101234.39;1707971;83;21510;-49
2022/06/08 05:13:22;;;;;;;3.77;2.27;;;;;;;26.40;49.45;101235.21;1705805;84;21069;-50
2022/06/08 05:15:51;;;;;;;2.30;2.10;;;;;;;26.70;49.12;101240.77;1705933;83;21057;-49
2022/06/08 05:18:20;;;;;;;2.75;2.10;;;;;;;26.94;48.70;101236.13;1706447;84;21057;-51
2022/06/08 05:20:48;;;;;;;3.85;2.40;;;;;;;27.20;48.40;101232.64;1707353;84;21081;-51
2022/06/08 05:23:24;;;;;;;3.17;2.02;;;;;;;27.43;48.13;101237.42;1680306;85;21069;-49
2022/06/08 05:25:52;;;;;;;2.30;2.00;;;;;;;27.71;47.86;101235.43;1710064;83;21069;-50
2022/06/08 05:28:19;;;;;;;2.22;2.02;;;;;;;28.00;47.13;101238.67;1723527;83;21065;-51
2022/06/08 05:30:49;;;;;;;2.22;1.98;;;;;;;28.23;46.77;101242.02;1719360;83;21093;-52
2022/06/08 05:33:17;;;;;;;3.00;2.08;;;;;;;28.38;46.47;101242.50;1660346;86;21089;-50
2022/06/08 05:35:45;;;;;;;2.70;2.50;;;;;;;28.49;46.22;101239.22;1686324;85;21081;-52
2022/06/08 05:38:13;;;;;;;3.05;2.00;;;;;;;28.57;45.86;101237.22;1676597;85;21616;-51
2022/06/08 05:40:40;;;;;;;6.58;2.33;;;;;;;28.61;45.01;101237.30;1636768;86;21082;-51
2022/06/08 05:43:10;;;;;;;2.15;1.90;;;;;;;28.62;44.70;101239.86;1699426;83;21513;-50
2022/06/08 05:45:39;;;;;;;2.33;1.90;;;;;;;28.59;44.58;101237.44;1723686;83;21128;-51
2022/06/08 05:48:09;;;;;;;3.12;2.10;;;;;;;28.55;44.19;101237.81;1723127;83;21030;-51
2022/06/08 05:50:37;;;;;;;3.52;2.27;;;;;;;28.47;44.39;101237.16;1722929;83;21073;-53
2022/06/08 05:53:06;;;;;;;3.45;2.05;;;;;;;28.41;44.56;101236.38;1713064;83;21030;-55
2022/06/08 05:55:33;;;;;;;5.78;2.25;;;;;;;28.40;44.49;101242.70;1723080;83;21022;-53
2022/06/08 05:58:00;;;;;;;5.50;2.20;;;;;;;28.42;44.86;101246.08;1697421;83;21581;-50
2022/06/08 06:00:31;;;;;;;4.15;2.40;;;;;;;28.49;45.10;101238.36;1711656;83;21013;-51
2022/06/08 06:02:58;;;;;;;4.03;2.12;;;;;;;28.58;45.23;101243.80;1660730;86;21026;-52
2022/06/08 06:05:29;;;;;;;6.15;2.42;;;;;;;28.68;45.71;101237.97;1693541;85;21054;-53
2022/06/08 06:07:57;;;;;;;4.12;2.65;;;;;;;28.79;46.16;101239.69;1723255;83;21657;-52
2022/06/08 06:10:27;;;;;;;4.12;2.85;;;;;;;28.91;46.52;101246.09;1707047;83;21530;-52
2022/06/08 06:12:55;;;;;;;3.10;2.50;;;;;;;29.06;46.87;101249.73;1723299;83;20970;-51
2022/06/08 06:15:25;;;;;;;4.05;3.47;;;;;;;29.21;46.22;101249.68;1719752;83;21065;-50
2022/06/08 06:17:52;;;;;;;5.67;2.90;;;;;;;29.36;46.05;101252.30;1723267;83;21029;-50
2022/06/08 06:20:20;;;;;;;3.20;2.90;;;;;;;29.54;45.72;101253.27;1660277;86;21089;-53
2022/06/08 06:23:04;;;;;;;3.77;2.60;;;;;;;29.75;44.79;101249.96;1663716;85;21527;-52
2022/06/08 06:25:36;;;;;;;4.83;2.65;;;;;;;30.03;44.22;101249.52;1692140;83;21022;-52
2022/06/08 06:28:06;;;;;;;3.07;2.73;;;;;;;30.30;43.68;101253.62;1688653;83;21085;-53
2022/06/08 06:30:50;;;;;;;2.72;2.30;;;;;;;30.57;42.77;101261.69;1637226;86;21117;-50
2022/06/08 06:33:28;;;;;;;2.52;2.20;;;;;;;30.80;42.04;101251.38;1582815;89;21049;-53
2022/06/08 06:35:56;;;;;;;3.22;2.65;;;;;;;30.94;41.28;101248.20;1595007;89;21537;-47
2022/06/08 06:38:23;;;;;;;3.08;2.75;;;;;;;30.97;41.03;101247.41;1596462;89;21052;-49
2022/06/08 06:40:51;;;;;;;3.52;2.83;;;;;;;30.98;41.25;101245.55;1593700;89;21091;-56
2022/06/08 06:43:20;;;;;;;4.37;2.50;;;;;;;30.96;41.24;101248.89;1599123;89;21581;-51
2022/06/08 06:45:46;;;;;;;3.27;2.45;;;;;;;30.93;41.04;101246.52;1597159;89;21045;-53
2022/06/08 06:48:25;;;;;;;3.40;2.70;;;;;;;30.77;40.83;101242.30;1604990;89;21081;-51
2022/06/08 06:50:54;;;;;;;5.80;2.52;;;;;;;30.58;40.58;101249.11;1605526;89;21133;-51
2022/06/08 06:53:21;;;;;;;4.33;2.80;;;;;;;30.39;40.11;101242.86;1604928;89;21518;-50
2022/06/08 06:55:50;;;;;;;5.53;2.90;;;;;;;30.21;40.04;101239.20;1605003;89;21112;-51
2022/06/08 06:58:18;;;;;;;3.33;2.35;;;;;;;30.09;40.22;101234.20;1596366;89;21137;-51
2022/06/08 07:00:46;;;;;;;3.30;2.70;;;;;;;29.96;40.06;101239.89;1592726;90;21594;-56
2022/06/08 07:03:16;;;;;;;3.10;2.83;;;;;;;29.87;40.25;101243.43;1593022;90;21061;-49
2022/06/08 07:05:45;;;;;;;5.55;3.65;;;;;;;29.76;40.40;101242.24;1605176;89;21069;-52
2022/06/08 07:08:13;;;;;;;8.20;3.25;;;;;;;29.62;40.45;101241.33;1612147;89;21086;-51
2022/06/08 07:10:43;;;;;;;6.67;3.15;;;;;;;29.46;40.62;101244.61;1612230;89;21094;-50
2022/06/08 07:13:13;;;;;;;5.05;2.85;;;;;;;29.35;40.89;101241.20;1612501;89;21541;-50
2022/06/08 07:15:40;;;;;;;3.00;2.58;;;;;;;29.22;41.28;101236.16;1601937;89;21542;-51
2022/06/08 07:18:07;;;;;;;3.05;2.75;;;;;;;29.09;41.54;101242.25;1612191;89;21110;-51
2022/06/08 07:20:36;;;;;;;4.55;3.02;;;;;;;29.03;42.13;101240.62;1612140;89;21142;-49
2022/06/08 07:23:02;;;;;;;3.42;3.00;;;;;;;29.01;42.68;101236.75;1612364;89;21117;-53
2022/06/08 07:25:29;;;;;;;5.25;3.10;;;;;;;29.09;42.83;101244.08;1610561;89;21130;-51
2022/06/08 07:27:56;;;;;;;3.37;3.08;;;;;;;29.24;42.22;101249.41;1609634;89;21050;-52
2022/06/08 07:30:24;;;;;;;3.85;2.83;;;;;;;29.44;42.04;101247.08;1739444;82;21050;-52
2022/06/08 07:32:51;;;;;;;3.70;2.47;;;;;;;29.63;41.67;101248.40;1740701;82;21078;-47
2022/06/08 07:35:18;;;;;;;3.67;3.08;;;;;;;29.73;41.34;101249.26;1738172;82;21576;-52
2022/06/08 07:37:45;;;;;;;4.65;3.05;;;;;;;29.82;41.08;101249.72;1732021;82;21122;-50
2022/06/08 07:40:13;;;;;;;7.37;3.02;;;;;;;29.88;40.91;101255.88;1725503;83;20995;-52
2022/06/08 07:42:41;;;;;;;3.85;2.92;;;;;;;29.92;40.53;101254.59;1740756;82;21019;-50
2022/06/08 07:45:10;;;;;;;4.10;2.95;;;;;;;29.96;40.81;101251.11;1741224;82;21026;-51
2022/06/08 07:49:36;;;;;;;3.37;3.08;;;;;;;29.97;40.92;101249.61;1743573;82;20971;-51
2022/06/08 07:50:07;;;;;;;3.65;3.35;;;;;;;29.98;40.79;101249.98;1740601;82;21062;-49
2022/06/08 07:52:34;;;;;;;3.70;2.75;;;;;;;29.99;40.50;101246.77;1741903;82;21066;-51
2022/06/08 07:55:01;;;;;;;4.97;3.40;;;;;;;29.97;40.22;101251.44;1748027;82;21030;-49
2022/06/08 07:57:27;;;;;;;5.62;4.12;;;;;;;29.97;40.29;101248.27;1749236;82;21537;-52
2022/06/08 07:59:56;;;;;;;5.37;3.62;;;;;;;29.97;40.24;101254.98;1752155;82;21038;-50
2022/06/08 08:02:24;;;;;;;5.65;3.42;;;;;;;29.99;39.92;101250.31;1751144;82;21023;-53
2022/06/08 08:04:51;;;;;;;4.87;4.00;;;;;;;29.97;39.64;101250.95;1742959;82;21058;-51
2022/06/08 08:07:19;;;;;;;5.03;3.98;;;;;;;29.96;39.93;101251.97;1739676;82;21039;-52
2022/06/08 08:09:48;;;;;;;9.38;4.25;;;;;;;29.95;39.97;101252.94;1750730;82;21073;-52
2022/06/08 08:12:15;;;;;;;7.15;4.78;;;;;;;29.95;39.92;101254.28;1755601;82;20983;-49
2022/06/08 08:14:42;;;;;;;4.55;4.08;;;;;;;29.93;39.98;101253.58;1725997;83;21090;-52
2022/06/08 08:17:10;;;;;;;8.60;4.95;;;;;;;29.90;39.70;101251.20;1750366;82;21014;-50
2022/06/08 08:19:38;;;;;;;5.12;4.42;;;;;;;29.92;39.66;101254.59;1726084;82;20990;-52
2022/06/08 08:22:05;;;;;;;4.72;3.72;;;;;;;29.90;39.51;101251.20;1710580;83;21054;-50
2022/06/08 08:24:33;;;;;;;8.23;3.98;;;;;;;29.90;39.59;101257.06;1726118;83;21066;-53
2022/06/08 08:27:00;;;;;;;6.28;3.72;;;;;;;29.90;39.96;101253.89;1711315;83;21504;-51
2022/06/08 08:29:28;;;;;;;8.03;5.12;;;;;;;29.93;39.99;101256.27;1738011;82;21050;-49
2022/06/08 08:31:54;;;;;;;7.75;4.00;;;;;;;29.97;39.85;101260.34;1712539;83;21031;-50
2022/06/08 08:34:21;;;;;;;3.95;3.62;;;;;;;30.01;39.77;101267.11;1725711;83;21031;-54
2022/06/08 08:36:49;;;;;;;4.70;4.22;;;;;;;30.05;39.16;101264.48;1715494;84;21063;-51
2022/06/08 08:39:16;;;;;;;4.40;3.37;;;;;;;30.04;39.13;101260.13;1738734;82;21030;-51
2022/06/08 08:44:40;;;;;;;4.83;3.52;;;;;;;30.04;38.98;101260.13;1743314;80;21062;-49
2022/06/08 08:47:38;;;;;;;6.22;4.00;;;;;;;30.04;39.10;101256.10;1756372;81;21542;-53
2022/06/08 08:50:26;;;;;;;5.83;3.83;;;;;;;30.04;39.33;101260.13;1674841;83;21578;-53
2022/06/08 08:53:23;;;;;;;5.12;4.10;;;;;;;30.03;39.53;101259.77;1698897;84;21026;-49
2022/06/08 08:56:03;;;;;;;7.97;4.78;;;;;;;30.00;39.70;101262.75;1637425;88;21078;-50
2022/06/08 08:58:38;;;;;;;7.53;4.90;;;;;;;29.95;39.97;101254.28;1628170;86;21107;-50
2022/06/08 09:01:23;;;;;;;8.05;4.20;;;;;;;29.97;39.95;101257.66;1655674;86;21063;-50
2022/06/08 09:04:00;;;;;;;5.62;4.65;;;;;;;30.01;39.87;101260.41;1643434;86;21075;-56
2022/06/08 09:06:31;;;;;;;6.10;4.08;;;;;;;30.05;40.03;101257.78;1618614;87;21089;-50
2022/06/08 09:09:02;;;;;;;5.15;4.35;;;;;;;30.13;39.71;101249.84;1646552;86;21673;-52
2022/06/08 09:11:38;;;;;;;7.58;4.47;;;;;;;30.20;39.45;101250.09;1618402;87;21173;-55
2022/06/08 09:14:19;;;;;;;7.55;4.25;;;;;;;30.27;39.51;101255.24;1646975;85;21104;-50
2022/06/08 09:16:49;;;;;;;7.75;4.25;;;;;;;30.35;39.32;101253.55;1659323;85;21063;-50
2022/06/08 09:19:26;;;;;;;11.43;4.55;;;;;;;30.41;39.19;101251.61;1618307;89;21065;-53
2022/06/08 09:22:13;;;;;;;9.45;5.20;;;;;;;30.50;38.62;101253.38;1618094;87;21578;-50
2022/06/08 09:24:53;;;;;;;7.92;4.40;;;;;;;30.56;38.63;101257.82;1618252;87;21081;-53
2022/06/08 09:27:30;;;;;;;8.60;4.50;;;;;;;30.64;38.60;101249.37;1648093;86;20998;-50
2022/06/08 09:30:03;;;;;;;6.78;4.40;;;;;;;30.72;37.56;101249.95;1649287;86;21894;-51
2022/06/08 09:32:49;;;;;;;8.70;4.75;;;;;;;30.77;37.31;101242.30;1657661;86;21033;-49
2022/06/08 09:35:32;;;;;;;5.10;4.35;;;;;;;30.77;37.20;101243.63;1667797;85;21538;-50
2022/06/08 09:38:04;;;;;;;5.00;3.83;;;;;;;30.76;37.24;101240.59;1628449;88;21098;-50
2022/06/08 09:40:37;;;;;;;4.33;3.40;;;;;;;30.70;37.41;101238.51;1581105;91;21048;-50
2022/06/08 09:43:27;;;;;;;5.67;4.33;;;;;;;30.70;37.10;101237.16;1573800;91;21045;-54
2022/06/08 09:46:17;;;;;;;6.72;4.12;;;;;;;30.71;36.48;101234.84;1557669;92;21138;-52
2022/06/08 09:52:00;;;;;;;9.13;3.80;;;;;;;30.60;36.39;101225.63;1532433;93;21102;-52
2022/06/08 09:54:42;;;;;;;4.78;3.33;;;;;;;30.59;36.56;101231.98;1528616;93;21152;-51
2022/06/08 09:57:33;;;;;;;;;;;;;;;30.55;36.28;101231.45;1552574;91;21622;-50
2022/06/08 10:00:34;;;;;;;3.92;2.98;;;;;;;30.51;35.98;101232.26;1556647;92;20154;-53
2022/06/08 10:03:20;;;;;;;3.25;2.70;;;;;;;30.50;35.76;101226.52;1559580;92;21117;-50
2022/06/08 10:06:28;;;;;;;3.40;2.80;;;;;;;30.57;35.90;101233.98;1559457;92;21089;-53
2022/06/08 10:09:19;;;;;;;3.35;2.50;;;;;;;30.59;35.54;101226.61;1552116;92;21174;-50
2022/06/08 10:12:08;;;;;;;4.33;2.33;;;;;;;30.62;34.99;101218.27;1559747;91;21551;-53
2022/06/08 10:14:49;;;;;;;5.92;2.75;;;;;;;30.61;34.67;101221.94;1559229;91;21653;-50
2022/06/08 10:17:27;;;;;;;4.75;2.40;;;;;;;30.57;34.56;101221.89;1557160;92;21117;-50
2022/06/08 10:22:48;;;;;;;3.22;2.40;;;;;;;30.40;34.12;101210.97;1518688;94;21154;-49
2022/06/08 10:25:38;;;;;;;2.90;2.05;;;;;;;30.34;34.27;101212.91;1518721;94;21096;-49
2022/06/08 10:28:09;;;;;;;2.60;2.00;;;;;;;30.32;34.12;101208.67;1520532;92;21118;-50
2022/06/08 10:30:41;;;;;;;4.50;2.12;;;;;;;30.34;34.32;101206.20;1481911;96;21141;-54
2022/06/08 10:33:22;;;;;;;4.75;2.33;;;;;;;30.39;34.39;101207.09;1397734;102;21141;-52
2022/06/08 10:35:54;;;;;;;3.35;2.30;;;;;;;30.47;34.31;101202.67;1409947;100;21257;-50
2022/06/08 10:38:32;;;;;;;2.07;1.70;;;;;;;30.58;33.83;101205.65;1449208;96;21195;-49
2022/06/08 10:44:00;;;;;;;3.98;1.65;;;;;;;30.74;32.67;101195.56;1454080;96;21115;-55
2022/06/08 10:46:34;;;;;;;2.17;1.87;;;;;;;30.83;32.44;101201.38;1476029;95;21160;-52
2022/06/08 10:49:01;;;;;;;1.77;1.57;;;;;;;30.82;31.82;101198.33;1434792;100;21131;-50
2022/06/08 10:51:35;;;;;;;2.60;1.87;;;;;;;30.80;31.14;101194.95;1434746;99;21084;-52
2022/06/08 10:56:51;;;;;;;3.80;1.80;;;;;;;30.79;30.49;101195.97;1407323;101;21131;-50
2022/06/08 10:59:27;;;;;;;;;;;;;;;30.77;30.43;101195.27;1436990;99;21127;-50
2022/06/08 11:02:12;;;;;;;3.47;2.10;;;;;;;30.75;30.45;101186.52;1380279;103;20119;-50
2022/06/08 11:04:53;;;;;;;2.85;1.80;;;;;;;30.75;30.30;101176.59;1376765;103;21312;-50
2022/06/08 11:07:22;;;;;;;2.05;1.50;;;;;;;30.73;30.11;101177.77;1380094;103;21190;-54
2022/06/08 11:09:57;;;;;;;4.62;1.90;;;;;;;30.72;30.18;101173.38;1379760;103;21139;-50
2022/06/08 11:12:54;;;;;;;6.72;2.37;;;;;;;30.68;30.10;101166.63;1358033;104;21124;-50
2022/06/08 11:15:35;;;;;;;3.62;1.95;;;;;;;30.68;30.20;101170.66;1356154;104;21137;-51
2022/06/08 11:18:13;;;;;;;3.30;2.05;;;;;;;30.67;30.56;101173.83;1356424;104;21169;-50
2022/06/08 11:20:47;;;;;;;5.17;2.10;;;;;;;30.66;30.54;101173.98;1361088;104;21263;-51
2022/06/08 11:23:22;;;;;;;4.55;1.87;;;;;;;30.62;30.58;101161.86;1332099;106;21161;-49
2022/06/08 11:26:06;;;;;;;5.75;2.05;;;;;;;30.59;30.70;101167.03;1321556;105;21150;-52
2022/06/08 11:28:40;;;;;;;2.55;1.92;;;;;;;30.53;30.45;101167.15;1397076;101;21670;-51
2022/06/08 11:31:29;;;;;;;2.42;2.17;;;;;;;30.46;30.48;101170.08;1345277;105;21175;-49
2022/06/08 11:34:23;;;;;;;3.87;1.90;;;;;;;30.39;30.71;101162.30;1388576;102;21592;-52
2022/06/08 11:37:12;;;;;;;4.70;2.00;;;;;;;30.33;31.28;101168.27;1390403;102;21148;-54
2022/06/08 11:39:55;;;;;;;3.27;2.10;;;;;;;30.25;31.35;101157.38;1389785;102;21240;-51
2022/06/08 11:42:27;;;;;;;;;;;;;;;30.18;31.27;101156.30;1387161;102;21112;-51
2022/06/08 11:45:08;;;;;;;3.30;1.90;;;;;;;30.11;31.13;101155.20;1415423;99;20177;-50
2022/06/08 11:47:42;;;;;;;2.87;1.80;;;;;;;30.04;31.25;101152.78;1420807;99;21174;-54
2022/06/08 11:50:20;;;;;;;2.35;1.60;;;;;;;30.00;31.28;101151.39;1478332;94;21141;-51
2022/06/08 11:53:03;;;;;;;2.60;1.80;;;;;;;29.98;31.16;101149.34;1508472;95;21532;-52
2022/06/08 11:55:33;;;;;;;2.90;2.20;;;;;;;30.01;30.39;101143.67;1507525;95;21660;-50
2022/06/08 11:58:16;;;;;;;2.30;2.10;;;;;;;30.07;30.79;101141.73;1535582;91;21590;-53
2022/06/08 12:00:54;;;;;;;3.12;1.80;;;;;;;30.16;30.74;101147.55;1556344;91;21138;-50
2022/06/08 12:03:29;;;;;;;2.55;1.90;;;;;;;30.27;30.61;101142.00;1580667;89;21107;-50
2022/06/08 12:06:14;;;;;;;3.92;2.00;;;;;;;30.38;30.10;101137.77;1599378;89;21122;-51
2022/06/08 12:08:49;;;;;;;3.08;1.80;;;;;;;30.48;30.25;101134.52;1599409;90;21126;-49
2022/06/08 12:11:18;;;;;;;1.85;1.50;;;;;;;30.58;29.89;101133.62;1600205;88;21120;-53
2022/06/08 12:14:01;;;;;;;3.77;1.70;;;;;;;30.69;29.53;101134.72;1599589;88;21099;-54